Time;durP1;ratioP1;P1;durP2;ratioP2;P2;SDS_P1;SDS_P2;PMS_P1;PMS_P2;Temp;Humidity;BMP_temperature;BMP_pressure;BME280_temperature;BME280_humidity;BME280_pressure;Samples;Min_cycle;Max_cycle;Signal;HPM_P1;HPM_P2
2023/06/23 00:01:23;;;;;;;1.35;1.20;;;20.70;99.90;;;;;;4934482;29;20585;-74
2023/06/23 00:03:48;;;;;;;2.00;1.27;;;20.70;99.90;;;;;;4935535;29;20039;-75
2023/06/23 00:06:14;;;;;;;1.30;1.23;;;20.70;99.90;;;;;;4934042;29;20032;-75
2023/06/23 00:08:40;;;;;;;3.05;1.70;;;20.70;99.90;;;;;;4935294;29;20031;-75
2023/06/23 00:11:10;;;;;;;1.73;1.60;;;20.60;99.90;;;;;;4935534;29;20389;-75
2023/06/23 00:13:37;;;;;;;3.05;1.50;;;20.60;99.90;;;;;;4936640;29;20114;-75
2023/06/23 00:16:04;;;;;;;3.10;1.45;;;20.60;99.90;;;;;;4933855;29;20552;-74
2023/06/23 00:18:39;;;;;;;3.88;1.50;;;20.60;99.90;;;;;;4919172;29;20378;-74
2023/06/23 00:21:08;;;;;;;1.23;1.13;;;20.50;99.90;;;;;;4935315;29;20031;-74
2023/06/23 00:23:34;;;;;;;1.90;1.27;;;20.40;99.90;;;;;;4936076;29;20039;-75
2023/06/23 00:26:01;;;;;;;1.63;1.50;;;20.40;99.90;;;;;;4935226;29;20823;-75
2023/06/23 00:28:27;;;;;;;1.25;1.13;;;20.40;99.90;;;;;;4917499;29;20159;-75
2023/06/23 00:30:55;;;;;;;2.90;1.40;;;20.30;99.90;;;;;;4935940;29;20106;-75
2023/06/23 00:33:21;;;;;;;1.90;1.80;;;20.30;99.90;;;;;;4934245;29;20237;-75
2023/06/23 00:35:46;;;;;;;3.40;1.75;;;20.30;99.90;;;;;;4935658;29;20128;-74
2023/06/23 00:38:13;;;;;;;2.33;1.52;;;20.30;99.90;;;;;;4934347;29;20093;-75
2023/06/23 00:40:39;;;;;;;3.47;1.70;;;20.20;99.90;;;;;;4935817;29;20043;-75
2023/06/23 00:43:05;;;;;;;1.50;1.40;;;20.20;99.90;;;;;;4935770;29;20469;-76
2023/06/23 00:45:31;;;;;;;3.85;1.80;;;20.20;99.90;;;;;;4935592;29;20376;-76
2023/06/23 00:47:57;;;;;;;1.70;1.38;;;20.10;99.90;;;;;;4931107;29;20032;-76
2023/06/23 00:50:24;;;;;;;1.98;1.60;;;20.10;99.90;;;;;;4933937;29;20494;-76
2023/06/23 00:52:51;;;;;;;1.48;1.38;;;20.10;99.90;;;;;;4936189;29;20075;-76
2023/06/23 00:55:22;;;;;;;2.25;1.85;;;20.10;99.90;;;;;;4917575;29;20031;-76
2023/06/23 00:57:51;;;;;;;2.10;1.90;;;20.10;99.90;;;;;;4930032;29;20390;-76
2023/06/23 01:00:19;;;;;;;2.63;1.83;;;20.10;99.90;;;;;;4934888;29;20203;-76
2023/06/23 01:02:53;;;;;;;2.13;1.67;;;20.10;99.90;;;;;;4902939;29;20419;-75
2023/06/23 01:05:20;;;;;;;2.13;1.92;;;20.10;99.90;;;;;;4933949;29;20615;-76
2023/06/23 01:08:25;;;;;;;1.90;1.70;;;20.10;99.90;;;;;;4911048;29;20043;-75
2023/06/23 01:11:06;;;;;;;2.08;1.85;;;20.00;99.90;;;;;;4931250;29;20027;-74
2023/06/23 01:13:54;;;;;;;2.03;1.80;;;20.00;99.90;;;;;;4936303;29;20032;-76
2023/06/23 01:16:31;;;;;;;2.05;1.40;;;20.00;99.90;;;;;;4935616;29;20031;-76
2023/06/23 01:19:23;;;;;;;1.75;1.63;;;;;;;;;;4935917;29;20026;-76
2023/06/23 01:21:52;;;;;;;1.70;1.60;;;;;;;;;;4936160;29;20145;-77
2023/06/23 01:24:24;;;;;;;2.78;1.92;;;;;;;;;;4934552;29;20078;-76
2023/06/23 01:27:09;;;;;;;3.78;2.13;;;;;;;;;;4933134;29;20035;-77
2023/06/23 01:29:38;;;;;;;2.63;2.20;;;;;;;;;;4930746;29;20035;-76
2023/06/23 01:32:27;;;;;;;3.33;2.47;;;;;;;;;;4935261;29;20027;-77
2023/06/23 01:34:54;;;;;;;2.70;2.28;;;;;;;;;;4941795;29;20034;-76
2023/06/23 01:37:22;;;;;;;2.50;1.98;;;;;;;;;;4940196;29;20054;-76
2023/06/23 01:39:52;;;;;;;4.20;2.88;;;;;;;;;;4941229;28;20047;-77
2023/06/23 01:42:20;;;;;;;3.60;3.22;;;18.20;99.90;;;;;;4937141;29;20035;-76
2023/06/23 01:44:49;;;;;;;3.90;3.60;;;18.00;99.90;;;;;;4934402;29;20040;-76
2023/06/23 01:47:18;;;;;;;4.70;4.00;;;17.70;99.90;;;;;;4932864;29;20051;-76
2023/06/23 01:49:46;;;;;;;6.05;4.25;;;17.60;99.90;;;;;;4927850;29;20451;-76
2023/06/23 01:52:13;;;;;;;5.13;4.63;;;17.50;99.90;;;;;;4933891;29;20059;-76
2023/06/23 01:54:41;;;;;;;6.18;5.00;;;17.30;99.90;;;;;;4934059;29;20036;-76
2023/06/23 01:57:09;;;;;;;6.85;4.65;;;17.20;99.90;;;;;;4930615;29;20035;-76
2023/06/23 01:59:37;;;;;;;5.80;5.20;;;17.20;99.90;;;;;;4934263;29;20034;-76
2023/06/23 02:02:03;;;;;;;5.22;4.72;;;17.00;99.90;;;;;;4933614;29;20035;-77
2023/06/23 02:04:30;;;;;;;6.95;5.28;;;17.00;99.90;;;;;;4933984;29;20520;-76
2023/06/23 02:06:58;;;;;;;9.18;5.57;;;17.00;99.90;;;;;;4933220;29;20130;-76
2023/06/23 02:09:29;;;;;;;6.35;4.97;;;17.00;99.90;;;;;;4933607;29;20040;-77
2023/06/23 02:11:57;;;;;;;5.88;4.82;;;17.00;99.90;;;;;;4911766;29;20047;-77
2023/06/23 02:14:26;;;;;;;5.47;4.38;;;17.00;99.90;;;;;;4933655;29;20028;-75
2023/06/23 02:16:53;;;;;;;4.13;3.72;;;17.00;99.90;;;;;;4933033;29;20503;-76
2023/06/23 02:19:21;;;;;;;5.07;4.53;;;16.90;99.90;;;;;;4933193;29;20781;-76
2023/06/23 02:21:48;;;;;;;4.00;3.60;;;17.00;99.90;;;;;;4934621;29;20028;-76
2023/06/23 02:24:15;;;;;;;3.28;2.97;;;17.00;99.90;;;;;;4931915;29;20103;-75
2023/06/23 02:26:42;;;;;;;3.50;3.20;;;17.10;99.90;;;;;;4930293;29;20039;-75
2023/06/23 02:29:09;;;;;;;3.35;3.05;;;17.00;99.90;;;;;;4933182;29;20100;-75
2023/06/23 02:31:34;;;;;;;3.40;3.10;;;17.10;99.90;;;;;;4917643;29;20031;-76
2023/06/23 02:34:00;;;;;;;4.18;2.92;;;17.10;99.90;;;;;;4933547;29;20110;-74
2023/06/23 02:36:32;;;;;;;3.85;3.17;;;17.10;99.90;;;;;;4932990;29;20507;-76
2023/06/23 02:39:00;;;;;;;4.32;3.75;;;17.00;99.90;;;;;;4933347;29;20054;-76
2023/06/23 02:41:30;;;;;;;3.40;3.10;;;17.00;99.90;;;;;;4934096;29;20059;-77
2023/06/23 02:43:59;;;;;;;4.20;3.45;;;17.00;99.90;;;;;;4932085;29;20039;-76
2023/06/23 02:46:38;;;;;;;3.60;3.22;;;17.00;99.90;;;;;;4930675;29;20047;-76
2023/06/23 02:49:10;;;;;;;4.35;3.95;;;17.00;99.90;;;;;;4931836;29;20032;-76
2023/06/23 02:51:37;;;;;;;4.88;4.00;;;17.00;99.90;;;;;;4934512;29;20054;-77
2023/06/23 02:54:11;;;;;;;4.78;4.38;;;17.00;99.90;;;;;;4928301;29;20119;-77
2023/06/23 02:56:41;;;;;;;5.80;5.20;;;17.10;99.90;;;;;;4934365;29;20040;-77
2023/06/23 02:59:08;;;;;;;;;;;17.10;99.90;;;;;;4933256;29;20031;-77
2023/06/23 03:01:38;;;;;;;5.43;4.93;;;17.10;99.90;;;;;;4933315;29;19921;-76
2023/06/23 03:04:04;;;;;;;6.40;5.75;;;17.20;99.90;;;;;;4915017;29;20122;-76
2023/06/23 03:06:34;;;;;;;8.07;6.32;;;17.10;99.90;;;;;;4931039;29;20457;-76
2023/06/23 03:09:02;;;;;;;6.75;6.03;;;17.10;99.90;;;;;;4936902;29;20090;-76
2023/06/23 03:11:29;;;;;;;8.05;7.25;;;17.10;99.90;;;;;;4937817;29;20064;-76
2023/06/23 03:13:54;;;;;;;8.02;7.03;;;17.20;99.90;;;;;;4936172;29;20171;-75
2023/06/23 03:16:29;;;;;;;10.23;6.65;;;17.20;99.90;;;;;;4936639;29;20218;-75
2023/06/23 03:19:13;;;;;;;9.43;7.38;;;17.20;99.90;;;;;;4936871;29;20413;-76
2023/06/23 03:21:39;;;;;;;11.68;7.78;;;17.10;99.90;;;;;;4937907;29;20535;-75
2023/06/23 03:24:09;;;;;;;11.35;8.27;;;17.20;99.90;;;;;;4934578;29;20039;-75
2023/06/23 03:26:37;;;;;;;8.93;8.02;;;17.20;99.90;;;;;;4936876;29;20099;-74
2023/06/23 03:29:06;;;;;;;10.25;7.07;;;17.20;99.90;;;;;;4936441;29;20043;-75
2023/06/23 03:31:37;;;;;;;11.57;8.47;;;17.20;99.90;;;;;;4908549;29;20379;-75
2023/06/23 03:34:03;;;;;;;11.82;8.20;;;17.20;99.90;;;;;;4936498;29;20031;-75
2023/06/23 03:36:28;;;;;;;9.07;7.45;;;17.20;99.90;;;;;;4936155;29;20034;-74
2023/06/23 03:39:20;;;;;;;11.85;8.75;;;17.30;99.90;;;;;;4936624;29;20047;-76
2023/06/23 03:41:48;;;;;;;11.30;8.45;;;17.20;99.90;;;;;;4929751;29;20043;-75
2023/06/23 03:44:35;;;;;;;9.57;8.68;;;17.20;99.90;;;;;;4935502;29;20028;-74
2023/06/23 03:47:09;;;;;;;11.35;9.57;;;17.20;99.90;;;;;;4936814;29;20043;-75
2023/06/23 03:49:41;;;;;;;11.15;9.40;;;17.20;99.90;;;;;;4936307;29;20023;-74
2023/06/23 03:52:09;;;;;;;10.38;8.27;;;17.20;99.90;;;;;;4916966;29;20039;-75
2023/06/23 03:54:39;;;;;;;9.80;8.63;;;17.20;99.90;;;;;;4931487;29;20059;-75
2023/06/23 03:57:07;;;;;;;;;;;17.30;99.90;;;;;;4937173;29;20039;-75
2023/06/23 03:59:36;;;;;;;11.52;9.68;;;17.30;99.90;;;;;;4935064;29;19918;-75
2023/06/23 04:02:03;;;;;;;13.35;8.82;;;17.30;99.90;;;;;;4935978;29;20493;-75
2023/06/23 04:04:31;;;;;;;11.52;9.48;;;17.40;99.90;;;;;;4935823;29;20373;-74
2023/06/23 04:06:58;;;;;;;15.85;9.90;;;17.50;99.90;;;;;;4935310;29;20040;-76
2023/06/23 04:09:24;;;;;;;13.43;9.75;;;17.60;99.90;;;;;;4934973;29;20032;-76
2023/06/23 04:11:51;;;;;;;15.73;9.43;;;17.60;99.90;;;;;;4936765;29;20051;-76
2023/06/23 04:14:18;;;;;;;10.57;9.40;;;17.70;99.90;;;;;;4927393;29;20584;-76
2023/06/23 04:16:45;;;;;;;11.57;9.43;;;17.80;99.90;;;;;;4936300;29;20477;-76
2023/06/23 04:19:12;;;;;;;13.68;10.30;;;17.90;99.90;;;;;;4934054;29;20046;-76
2023/06/23 04:21:38;;;;;;;13.00;9.82;;;18.00;99.90;;;;;;4936430;29;20032;-76
2023/06/23 04:24:06;;;;;;;11.52;9.88;;;18.10;99.90;;;;;;4933740;29;20063;-76
2023/06/23 04:26:34;;;;;;;10.70;9.35;;;18.10;99.90;;;;;;4936380;29;20042;-76
2023/06/23 04:29:04;;;;;;;10.68;9.35;;;18.20;99.90;;;;;;4934323;29;20540;-77
2023/06/23 04:31:32;;;;;;;10.10;8.68;;;18.20;99.90;;;;;;4936714;29;20027;-76
2023/06/23 04:33:57;;;;;;;13.60;9.95;;;18.20;99.90;;;;;;4931272;29;20055;-76
2023/06/23 04:36:29;;;;;;;13.02;10.70;;;18.30;99.90;;;;;;4930200;29;20505;-74
2023/06/23 04:39:06;;;;;;;10.93;9.40;;;18.30;99.90;;;;;;4929097;29;20054;-76
2023/06/23 04:41:34;;;;;;;14.10;10.25;;;18.40;99.90;;;;;;4928710;29;20025;-75
2023/06/23 04:44:04;;;;;;;11.77;9.52;;;18.50;99.90;;;;;;4930790;29;20032;-75
2023/06/23 04:46:33;;;;;;;11.98;10.23;;;18.50;99.90;;;;;;4926299;29;20044;-75
2023/06/23 04:49:10;;;;;;;12.73;10.27;;;18.60;99.90;;;;;;4927178;29;20020;-75
2023/06/23 04:51:46;;;;;;;12.93;10.35;;;18.70;99.90;;;;;;4926354;29;20409;-75
2023/06/23 04:54:20;;;;;;;14.30;10.82;;;18.80;99.90;;;;;;4929462;29;20170;-74
2023/06/23 04:56:49;;;;;;;12.30;9.45;;;18.90;99.90;;;;;;4925467;29;20043;-75
2023/06/23 04:59:19;;;;;;;13.98;10.88;;;18.90;99.90;;;;;;4934518;29;20071;-74
2023/06/23 05:01:45;;;;;;;;;;;18.90;99.90;;;;;;4935322;29;20071;-75
2023/06/23 05:04:13;;;;;;;13.55;11.35;;;18.90;99.90;;;;;;4934626;29;19915;-75
2023/06/23 05:06:40;;;;;;;12.82;10.10;;;18.80;99.90;;;;;;4935166;29;20040;-75
2023/06/23 05:09:07;;;;;;;13.73;10.98;;;18.80;99.90;;;;;;4935150;29;20040;-74
2023/06/23 05:11:34;;;;;;;12.88;9.98;;;18.80;99.90;;;;;;4929632;29;20031;-75
2023/06/23 05:14:02;;;;;;;13.60;11.88;;;18.80;99.90;;;;;;4932572;29;20059;-75
2023/06/23 05:16:28;;;;;;;13.27;11.23;;;18.90;99.90;;;;;;4928172;29;20021;-75
2023/06/23 05:18:55;;;;;;;18.20;13.07;;;18.90;99.90;;;;;;4930368;29;20042;-75
2023/06/23 05:21:23;;;;;;;15.50;13.15;;;18.90;99.90;;;;;;4927307;29;20038;-75
2023/06/23 05:23:53;;;;;;;16.67;13.38;;;18.90;99.90;;;;;;4933708;29;20069;-74
2023/06/23 05:26:19;;;;;;;14.97;13.17;;;18.90;99.90;;;;;;4915772;29;20644;-75
2023/06/23 05:28:46;;;;;;;16.15;13.82;;;19.00;99.90;;;;;;4932434;29;20023;-75
2023/06/23 05:31:13;;;;;;;18.90;14.65;;;19.10;99.90;;;;;;4926799;29;20024;-75
2023/06/23 05:33:42;;;;;;;16.80;14.93;;;19.10;99.90;;;;;;4934669;29;20024;-75
2023/06/23 05:36:10;;;;;;;18.00;14.00;;;19.10;99.90;;;;;;4931338;29;20055;-75
2023/06/23 05:38:37;;;;;;;15.75;12.65;;;19.20;99.90;;;;;;4934107;29;20047;-68
2023/06/23 05:41:03;;;;;;;19.98;14.18;;;19.30;99.90;;;;;;4922833;29;20040;-70
2023/06/23 05:43:28;;;;;;;22.80;18.45;;;19.40;99.90;;;;;;4932402;29;20023;-67
2023/06/23 05:45:56;;;;;;;21.58;17.67;;;19.50;99.90;;;;;;4930249;29;20478;-67
2023/06/23 05:48:31;;;;;;;20.63;17.10;;;19.70;99.90;;;;;;4933978;29;20036;-67
2023/06/23 05:51:00;;;;;;;17.20;15.00;;;19.70;99.90;;;;;;4933812;29;20389;-71
2023/06/23 05:53:28;;;;;;;21.27;15.80;;;19.60;99.90;;;;;;4934402;29;20784;-69
2023/06/23 05:56:03;;;;;;;23.15;17.02;;;19.70;99.90;;;;;;4925541;29;20024;-67
2023/06/23 05:58:34;;;;;;;23.25;16.17;;;19.70;99.90;;;;;;4933770;29;20063;-70
2023/06/23 06:01:04;;;;;;;24.77;18.23;;;19.70;99.90;;;;;;4933504;29;20631;-75
2023/06/23 06:03:35;;;;;;;;;;;19.70;99.90;;;;;;4932114;29;20110;-74
2023/06/23 06:06:03;;;;;;;25.85;17.35;;;19.70;99.90;;;;;;4928346;29;20386;-74
2023/06/23 06:08:29;;;;;;;23.35;17.88;;;19.80;99.90;;;;;;4933915;29;20102;-71
2023/06/23 06:10:58;;;;;;;20.92;16.35;;;19.80;99.90;;;;;;4926823;29;20038;-71
2023/06/23 06:13:25;;;;;;;23.88;18.42;;;19.80;99.90;;;;;;4919481;29;20027;-69
2023/06/23 06:15:52;;;;;;;18.83;14.88;;;19.90;99.90;;;;;;4927985;29;20035;-69
2023/06/23 06:18:20;;;;;;;20.38;16.95;;;20.00;99.90;;;;;;4925612;29;20023;-69
2023/06/23 06:20:48;;;;;;;21.63;16.75;;;20.10;99.90;;;;;;4928025;29;20044;-69
2023/06/23 06:23:16;;;;;;;22.00;16.67;;;20.30;99.90;;;;;;4924167;29;20059;-68
2023/06/23 06:25:44;;;;;;;20.42;16.65;;;20.30;99.90;;;;;;4927469;29;20063;-73
2023/06/23 06:28:12;;;;;;;17.02;15.05;;;20.30;99.90;;;;;;4926899;29;20028;-68
2023/06/23 06:30:42;;;;;;;17.95;15.02;;;20.40;99.90;;;;;;4932702;29;20036;-71
2023/06/23 06:33:11;;;;;;;15.70;13.18;;;20.50;99.90;;;;;;4910690;29;20042;-69
2023/06/23 06:35:37;;;;;;;18.80;16.33;;;20.70;99.90;;;;;;4931324;29;20365;-69
2023/06/23 06:38:05;;;;;;;19.13;14.98;;;20.90;99.90;;;;;;4934291;29;20484;-71
2023/06/23 06:40:31;;;;;;;18.25;15.27;;;21.00;99.90;;;;;;4933516;29;20489;-69
2023/06/23 06:42:57;;;;;;;20.15;14.82;;;21.20;99.90;;;;;;4934864;29;20625;-72
2023/06/23 06:45:23;;;;;;;18.67;15.18;;;21.30;99.90;;;;;;4933529;29;20028;-69
2023/06/23 06:47:49;;;;;;;19.00;15.77;;;21.40;99.90;;;;;;4935287;29;20151;-70
2023/06/23 06:50:16;;;;;;;18.67;15.05;;;21.40;99.90;;;;;;4933915;29;20032;-69
2023/06/23 06:52:43;;;;;;;23.20;17.58;;;21.30;99.90;;;;;;4934306;29;20031;-72
2023/06/23 06:55:15;;;;;;;17.48;14.25;;;21.30;99.90;;;;;;4931698;29;20055;-68
2023/06/23 06:57:41;;;;;;;17.85;13.50;;;21.20;99.90;;;;;;4929997;29;20540;-69
2023/06/23 07:00:09;;;;;;;19.10;16.23;;;21.10;99.90;;;;;;4916923;29;20059;-69
2023/06/23 07:02:38;;;;;;;20.70;17.08;;;21.10;99.90;;;;;;4934235;29;20036;-69
2023/06/23 07:05:05;;;;;;;20.42;17.50;;;21.10;99.90;;;;;;4929760;29;20024;-69
2023/06/23 07:07:31;;;;;;;21.00;17.70;;;21.00;99.90;;;;;;4930912;29;20407;-69
2023/06/23 07:09:56;;;;;;;23.55;17.10;;;20.80;99.90;;;;;;4933717;29;20038;-73
2023/06/23 07:12:25;;;;;;;20.63;16.13;;;20.80;99.90;;;;;;4933507;29;20023;-71
2023/06/23 07:14:51;;;;;;;21.08;17.90;;;20.80;99.90;;;;;;4929813;29;20086;-70
2023/06/23 07:17:17;;;;;;;25.70;18.05;;;20.80;99.90;;;;;;4932019;29;20631;-71
2023/06/23 07:19:42;;;;;;;19.23;15.70;;;20.60;99.90;;;;;;4933544;29;20149;-72
2023/06/23 07:22:09;;;;;;;20.35;16.10;;;20.50;99.90;;;;;;4932919;29;20465;-70
2023/06/23 07:24:34;;;;;;;20.75;15.48;;;20.70;99.90;;;;;;4932696;29;20083;-70
2023/06/23 07:27:00;;;;;;;17.02;13.23;;;20.80;99.90;;;;;;4933143;29;20048;-75
2023/06/23 07:29:26;;;;;;;16.83;13.60;;;20.90;99.90;;;;;;4933817;29;20038;-70
2023/06/23 07:31:52;;;;;;;20.77;15.45;;;20.90;99.90;;;;;;4933219;29;20034;-70
2023/06/23 07:34:17;;;;;;;19.35;15.02;;;20.90;99.90;;;;;;4932041;29;20042;-69
2023/06/23 07:36:43;;;;;;;21.83;15.55;;;20.90;99.90;;;;;;4934063;29;20078;-70
2023/06/23 07:39:09;;;;;;;15.07;12.35;;;20.80;99.90;;;;;;4932297;29;20055;-70
2023/06/23 07:41:35;;;;;;;15.50;11.65;;;20.70;99.90;;;;;;4932945;29;20389;-70
2023/06/23 07:44:01;;;;;;;17.83;12.27;;;20.70;99.90;;;;;;4933299;29;20023;-75
2023/06/23 07:46:27;;;;;;;17.88;13.60;;;20.80;99.90;;;;;;4930267;29;20040;-70
2023/06/23 07:48:52;;;;;;;15.15;13.02;;;20.90;99.90;;;;;;4933613;29;20099;-69
2023/06/23 07:51:18;;;;;;;15.68;12.05;;;20.90;99.90;;;;;;4933947;29;20046;-69
2023/06/23 07:53:44;;;;;;;13.75;11.68;;;20.90;99.90;;;;;;4937855;29;20094;-70
2023/06/23 07:56:12;;;;;;;14.73;13.05;;;20.90;99.90;;;;;;4935906;29;20458;-71
2023/06/23 07:58:40;;;;;;;16.17;11.55;;;20.90;99.90;;;;;;4933218;29;20059;-72
2023/06/23 08:01:06;;;;;;;12.75;11.45;;;20.80;99.90;;;;;;4935987;29;20040;-69
2023/06/23 08:03:33;;;;;;;15.10;13.02;;;20.80;99.90;;;;;;4936662;29;20135;-70
2023/06/23 08:05:59;;;;;;;14.32;10.75;;;20.80;99.90;;;;;;4931363;29;20143;-73
2023/06/23 08:08:25;;;;;;;14.07;11.73;;;20.80;99.90;;;;;;4935897;29;20110;-69
2023/06/23 08:10:50;;;;;;;13.52;11.23;;;20.80;99.90;;;;;;4935451;29;20066;-67
2023/06/23 08:13:17;;;;;;;13.43;9.38;;;20.70;99.90;;;;;;4936147;29;20028;-66
2023/06/23 08:15:43;;;;;;;11.80;10.02;;;20.80;99.90;;;;;;4935767;29;20437;-67
2023/06/23 08:18:08;;;;;;;14.93;9.57;;;21.00;99.90;;;;;;4935353;29;20036;-66
2023/06/23 08:20:34;;;;;;;10.90;9.80;;;21.20;99.90;;;;;;4935305;29;20031;-67
2023/06/23 08:22:59;;;;;;;14.23;9.90;;;21.20;99.90;;;;;;4935629;29;20063;-72
2023/06/23 08:25:25;;;;;;;13.63;11.18;;;21.30;99.90;;;;;;4934866;29;20521;-67
2023/06/23 08:27:51;;;;;;;15.27;11.50;;;21.40;99.90;;;;;;4935391;29;20040;-67
2023/06/23 08:30:28;;;;;;;15.05;10.27;;;21.40;99.90;;;;;;4934405;29;20031;-70
2023/06/23 08:32:54;;;;;;;15.20;11.05;;;21.40;99.90;;;;;;4936121;29;20110;-68
2023/06/23 08:35:20;;;;;;;14.90;12.65;;;21.50;99.90;;;;;;4929066;29;20143;-67
2023/06/23 08:37:46;;;;;;;16.75;10.80;;;21.70;99.90;;;;;;4935415;29;20110;-68
2023/06/23 08:40:12;;;;;;;16.50;11.20;;;21.70;99.90;;;;;;4927113;29;20051;-66
2023/06/23 08:42:38;;;;;;;15.70;11.82;;;21.80;99.90;;;;;;4931510;29;20044;-69
2023/06/23 08:45:06;;;;;;;15.95;10.75;;;21.80;99.90;;;;;;4927077;29;20051;-66
2023/06/23 08:47:36;;;;;;;16.02;11.65;;;21.80;99.90;;;;;;4933831;29;20091;-67
2023/06/23 08:50:03;;;;;;;14.82;10.52;;;21.80;99.90;;;;;;4934192;29;20086;-67
2023/06/23 08:52:29;;;;;;;15.13;11.48;;;21.90;99.90;;;;;;4931813;29;20036;-66
2023/06/23 08:54:54;;;;;;;13.88;11.23;;;22.00;99.90;;;;;;4933884;29;20094;-68
2023/06/23 08:57:21;;;;;;;15.32;11.52;;;21.90;99.90;;;;;;4924596;29;20067;-66
2023/06/23 08:59:46;;;;;;;12.75;10.75;;;22.00;99.90;;;;;;4927455;29;20031;-67
2023/06/23 09:02:12;;;;;;;12.80;10.43;;;22.00;99.90;;;;;;4931313;29;20180;-66
2023/06/23 09:04:39;;;;;;;15.32;11.10;;;22.20;99.90;;;;;;4930586;29;20031;-68
2023/06/23 09:07:05;;;;;;;14.10;9.95;;;22.30;99.90;;;;;;4934796;29;20086;-66
2023/06/23 09:09:31;;;;;;;12.23;10.80;;;22.50;99.90;;;;;;4933923;29;20504;-66
2023/06/23 09:11:58;;;;;;;12.57;9.25;;;22.70;99.90;;;;;;4930506;29;20040;-66
2023/06/23 09:14:29;;;;;;;18.10;10.98;;;23.00;99.90;;;;;;4929171;29;20028;-66
2023/06/23 09:16:56;;;;;;;13.43;11.23;;;23.10;99.90;;;;;;4928996;29;20036;-67
2023/06/23 09:19:23;;;;;;;11.77;9.25;;;23.10;99.90;;;;;;4926155;29;20547;-67
2023/06/23 09:21:49;;;;;;;14.23;10.77;;;23.30;99.90;;;;;;4925898;29;20083;-67
2023/06/23 09:24:16;;;;;;;11.15;9.30;;;23.20;99.90;;;;;;4928699;29;20505;-67
2023/06/23 09:26:48;;;;;;;11.98;8.13;;;23.10;99.90;;;;;;4927184;29;20063;-67
2023/06/23 09:29:26;;;;;;;18.60;9.65;;;23.10;99.90;;;;;;4928167;29;20110;-66
2023/06/23 09:31:53;;;;;;;13.82;9.40;;;23.20;99.90;;;;;;4930079;29;20035;-67
2023/06/23 09:34:24;;;;;;;9.75;8.68;;;23.30;99.90;;;;;;4929521;29;20035;-68
2023/06/23 09:36:50;;;;;;;12.88;8.43;;;23.60;99.90;;;;;;4928409;29;20039;-73
2023/06/23 09:39:16;;;;;;;13.52;8.88;;;23.70;99.90;;;;;;4924395;29;20047;-74
2023/06/23 09:41:47;;;;;;;9.75;7.20;;;23.90;99.90;;;;;;4928332;29;20027;-74
2023/06/23 09:44:13;;;;;;;10.98;7.80;;;24.20;99.90;;;;;;4926331;29;20064;-73
2023/06/23 09:46:41;;;;;;;12.07;8.15;;;24.40;99.90;;;;;;4911109;29;20042;-75
2023/06/23 09:49:07;;;;;;;12.98;8.02;;;24.20;99.30;;;;;;4930448;29;20047;-74
2023/06/23 09:51:37;;;;;;;12.68;7.53;;;24.00;99.80;;;;;;4927462;29;20042;-73
2023/06/23 09:54:03;;;;;;;;;;;23.90;98.90;;;;;;4932225;29;20039;-75
2023/06/23 09:56:28;;;;;;;9.32;7.97;;;23.90;98.40;;;;;;4928308;29;20272;-73
2023/06/23 09:58:54;;;;;;;14.25;6.35;;;24.10;98.40;;;;;;4930446;29;20051;-74
2023/06/23 10:01:20;;;;;;;7.32;6.63;;;24.40;98.50;;;;;;4930145;29;20024;-74
2023/06/23 10:03:49;;;;;;;8.07;6.38;;;24.60;97.80;;;;;;4928983;29;20036;-74
2023/06/23 10:06:21;;;;;;;8.02;6.95;;;24.60;97.60;;;;;;4930068;29;20062;-73
2023/06/23 10:08:47;;;;;;;8.07;7.18;;;24.80;97.60;;;;;;4928362;29;20039;-74
2023/06/23 10:11:18;;;;;;;6.60;5.47;;;25.00;97.30;;;;;;4928273;29;20035;-73
2023/06/23 10:13:45;;;;;;;;;;;25.00;97.50;;;;;;4912941;29;20028;-73
2023/06/23 10:16:11;;;;;;;12.07;6.15;;;25.30;97.10;;;;;;4930266;29;19969;-71
2023/06/23 10:18:37;;;;;;;6.47;5.78;;;25.60;96.10;;;;;;4928534;29;20031;-71
2023/06/23 10:21:03;;;;;;;6.95;6.25;;;25.60;94.80;;;;;;4930612;29;20095;-73
2023/06/23 10:23:31;;;;;;;8.73;6.93;;;25.70;94.70;;;;;;4927251;29;20040;-72
2023/06/23 10:25:58;;;;;;;6.82;6.05;;;25.50;94.50;;;;;;4924079;29;20115;-74
2023/06/23 10:28:28;;;;;;;6.82;6.07;;;25.30;94.50;;;;;;4925570;29;20043;-72
2023/06/23 10:30:54;;;;;;;6.95;5.43;;;25.20;94.80;;;;;;4932143;29;20042;-72
2023/06/23 10:33:22;;;;;;;7.70;6.10;;;25.20;95.00;;;;;;4928029;29;20581;-72
2023/06/23 10:35:50;;;;;;;7.55;6.68;;;25.20;94.70;;;;;;4929011;29;20032;-72
2023/06/23 10:38:21;;;;;;;6.70;5.78;;;25.00;94.50;;;;;;4923292;29;20051;-73
2023/06/23 10:40:50;;;;;;;9.77;6.50;;;24.60;95.10;;;;;;4930506;29;20078;-72
2023/06/23 10:43:19;;;;;;;10.95;6.45;;;24.30;95.20;;;;;;4927274;29;20099;-73
2023/06/23 10:45:45;;;;;;;6.20;5.53;;;24.10;95.60;;;;;;4925903;29;20044;-73
2023/06/23 10:48:11;;;;;;;10.38;6.18;;;23.80;96.00;;;;;;4924480;29;20098;-73
2023/06/23 10:50:39;;;;;;;8.45;7.20;;;23.50;96.30;;;;;;4927845;29;20032;-72
2023/06/23 10:53:16;;;;;;;8.15;6.78;;;23.20;96.40;;;;;;4922839;29;20024;-73
2023/06/23 10:55:42;;;;;;;8.80;6.07;;;23.00;96.80;;;;;;4922515;29;20040;-73
2023/06/23 10:58:12;;;;;;;9.75;6.95;;;23.10;97.10;;;;;;4928782;29;20036;-73
2023/06/23 11:00:38;;;;;;;8.02;6.65;;;23.20;97.00;;;;;;4915079;29;20385;-73
2023/06/23 11:03:10;;;;;;;5.82;5.22;;;23.40;96.40;;;;;;4927088;29;20031;-73
2023/06/23 11:05:41;;;;;;;9.13;6.20;;;23.80;96.10;;;;;;4927534;29;20056;-72
2023/06/23 11:08:09;;;;;;;6.00;5.40;;;24.20;95.80;;;;;;4925993;29;20485;-71
2023/06/23 11:10:47;;;;;;;8.85;5.88;;;24.70;94.80;;;;;;4925087;29;20123;-72
2023/06/23 11:13:13;;;;;;;6.40;5.75;;;25.10;94.60;;;;;;4922961;29;20035;-71
2023/06/23 11:15:47;;;;;;;7.20;4.82;;;25.00;93.80;;;;;;4930156;29;20031;-72
2023/06/23 11:18:14;;;;;;;9.85;6.30;;;24.70;94.20;;;;;;4928811;29;20079;-72
2023/06/23 11:20:43;;;;;;;9.18;5.30;;;24.40;95.20;;;;;;4925033;29;20028;-73
2023/06/23 11:23:12;;;;;;;7.97;6.50;;;24.20;95.20;;;;;;4923827;29;20445;-72
2023/06/23 11:25:50;;;;;;;6.30;5.70;;;24.30;95.10;;;;;;4928484;29;20043;-72
2023/06/23 11:28:38;;;;;;;9.88;5.40;;;24.40;95.30;;;;;;4922664;29;20071;-73
2023/06/23 11:31:20;;;;;;;7.20;5.68;;;24.50;95.00;;;;;;4925944;29;20485;-73
2023/06/23 11:33:55;;;;;;;8.25;5.15;;;24.80;95.10;;;;;;4933707;29;20481;-73
2023/06/23 11:36:23;;;;;;;5.93;4.78;;;25.30;93.50;;;;;;4931817;29;20039;-72
2023/06/23 11:38:50;;;;;;;7.22;5.25;;;25.50;93.00;;;;;;4931900;29;20131;-73
2023/06/23 11:41:24;;;;;;;6.10;5.43;;;25.50;92.70;;;;;;4928792;29;20035;-73
2023/06/23 11:43:49;;;;;;;6.82;5.55;;;25.40;93.00;;;;;;4931583;29;20425;-73
2023/06/23 11:46:16;;;;;;;6.63;5.93;;;25.40;93.00;;;;;;4930287;29;20051;-72
2023/06/23 11:48:42;;;;;;;6.75;5.30;;;25.60;92.60;;;;;;4934112;29;20485;-72
2023/06/23 11:51:12;;;;;;;5.50;4.65;;;25.80;91.30;;;;;;4934777;29;20147;-72
2023/06/23 11:53:41;;;;;;;10.52;5.57;;;26.00;92.00;;;;;;4927933;29;20030;-73
2023/06/23 11:56:07;;;;;;;7.40;5.53;;;26.20;92.00;;;;;;4927364;29;20027;-72
2023/06/23 11:58:34;;;;;;;5.63;5.07;;;26.10;91.90;;;;;;4927940;29;20075;-72
2023/06/23 12:01:01;;;;;;;7.63;5.22;;;26.00;92.10;;;;;;4932727;29;20050;-76
2023/06/23 12:03:29;;;;;;;7.60;5.65;;;25.80;92.30;;;;;;4926240;29;20039;-73
2023/06/23 12:05:54;;;;;;;7.43;5.40;;;25.50;92.30;;;;;;4931365;29;20040;-73
2023/06/23 12:08:23;;;;;;;9.55;5.57;;;25.30;92.70;;;;;;4932278;29;20035;-73
2023/06/23 12:10:51;;;;;;;6.35;5.28;;;25.20;92.40;;;;;;4935139;29;20046;-72
2023/06/23 12:13:19;;;;;;;7.20;5.93;;;25.00;92.60;;;;;;4930942;29;20788;-72
2023/06/23 12:15:45;;;;;;;6.38;5.78;;;25.20;92.60;;;;;;4934201;29;20107;-73
2023/06/23 12:18:11;;;;;;;5.95;4.95;;;25.60;92.40;;;;;;4927658;29;20450;-73
2023/06/23 12:20:47;;;;;;;5.75;5.10;;;26.60;92.70;;;;;;4930540;29;20113;-72
2023/06/23 12:23:14;;;;;;;6.20;5.22;;;26.50;91.90;;;;;;4923721;29;20386;-72
2023/06/23 12:25:52;;;;;;;6.00;4.60;;;26.60;91.40;;;;;;4931228;29;20043;-72
2023/06/23 12:28:19;;;;;;;8.40;4.57;;;26.50;91.00;;;;;;4924009;29;20126;-73
2023/06/23 12:30:48;;;;;;;5.32;4.80;;;26.20;90.10;;;;;;4932832;29;20079;-72
2023/06/23 12:33:30;;;;;;;5.78;3.95;;;25.90;90.20;;;;;;4933703;29;20055;-72
2023/06/23 12:36:05;;;;;;;5.50;4.30;;;25.50;90.20;;;;;;4930812;29;20036;-73
2023/06/23 12:38:33;;;;;;;7.63;4.97;;;25.20;90.80;;;;;;4928834;29;20497;-72
2023/06/23 12:41:23;;;;;;;9.30;5.28;;;25.00;91.60;;;;;;4928346;29;20027;-74
2023/06/23 12:43:52;;;;;;;8.48;5.35;;;24.90;92.00;;;;;;4918497;29;20032;-72
2023/06/23 12:46:22;;;;;;;6.90;5.20;;;25.20;92.30;;;;;;4933725;29;20038;-72
2023/06/23 12:48:49;;;;;;;8.95;5.28;;;25.80;91.70;;;;;;4934817;29;20453;-72
2023/06/23 12:51:15;;;;;;;6.05;4.88;;;26.50;90.80;;;;;;4932997;29;20032;-72